sensor_id;sensor_type;location;lat;lon;timestamp;pressure;altitude;pressure_sealevel;temperature;humidity
66664;BME280;59683;51.428;-1.994;2023-04-23T06:44:30;99259.63;;;8.32;100.00
66664;BME280;59683;51.428;-1.994;2023-04-23T06:47:09;99254.34;;;8.32;100.00
66664;BME280;59683;51.428;-1.994;2023-04-23T06:49:35;99241.84;;;8.34;100.00
66664;BME280;59683;51.428;-1.994;2023-04-23T06:52:01;99239.50;;;8.41;100.00
66664;BME280;59683;51.428;-1.994;2023-04-23T06:54:26;99256.81;;;8.53;100.00
66664;BME280;59683;51.428;-1.994;2023-04-23T06:56:52;99250.44;;;8.56;100.00
66664;BME280;59683;51.428;-1.994;2023-04-23T06:59:17;99262.09;;;8.63;100.00
66664;BME280;59683;51.428;-1.994;2023-04-23T07:01:43;99251.09;;;8.67;100.00
66664;BME280;59683;51.428;-1.994;2023-04-23T07:04:09;99250.66;;;8.82;100.00
66664;BME280;59683;51.428;-1.994;2023-04-23T07:06:34;99254.22;;;8.90;100.00
66664;BME280;59683;51.428;-1.994;2023-04-23T07:09:00;99248.66;;;8.93;100.00
66664;BME280;59683;51.428;-1.994;2023-04-23T07:11:25;99252.28;;;8.92;100.00
66664;BME280;59683;51.428;-1.994;2023-04-23T07:13:51;99249.81;;;8.81;100.00
66664;BME280;59683;51.428;-1.994;2023-04-23T07:16:16;99250.25;;;8.77;100.00
66664;BME280;59683;51.428;-1.994;2023-04-23T07:18:42;99254.28;;;8.71;100.00
66664;BME280;59683;51.428;-1.994;2023-04-23T07:21:07;99259.94;;;8.86;100.00
66664;BME280;59683;51.428;-1.994;2023-04-23T07:23:32;99269.19;;;9.82;100.00
66664;BME280;59683;51.428;-1.994;2023-04-23T07:25:58;99267.97;;;10.30;100.00
66664;BME280;59683;51.428;-1.994;2023-04-23T07:28:23;99266.44;;;10.72;100.00
66664;BME280;59683;51.428;-1.994;2023-04-23T07:30:49;99263.22;;;10.86;100.00
66664;BME280;59683;51.428;-1.994;2023-04-23T07:33:14;99261.69;;;11.43;100.00
66664;BME280;59683;51.428;-1.994;2023-04-23T07:35:40;99253.53;;;11.87;100.00
66664;BME280;59683;51.428;-1.994;2023-04-23T07:38:05;99210.25;;;12.44;100.00
66664;BME280;59683;51.428;-1.994;2023-04-23T07:40:31;99187.44;;;12.82;100.00
66664;BME280;59683;51.428;-1.994;2023-04-23T07:42:56;99177.53;;;13.07;100.00
66664;BME280;59683;51.428;-1.994;2023-04-23T07:45:23;99183.19;;;14.13;100.00
66664;BME280;59683;51.428;-1.994;2023-04-23T07:47:49;99187.47;;;13.99;100.00
66664;BME280;59683;51.428;-1.994;2023-04-23T07:50:17;99188.13;;;13.78;100.00
66664;BME280;59683;51.428;-1.994;2023-04-23T07:52:42;99180.75;;;13.34;100.00
66664;BME280;59683;51.428;-1.994;2023-04-23T07:55:08;99181.00;;;13.24;100.00
66664;BME280;59683;51.428;-1.994;2023-04-23T07:57:33;99178.63;;;12.90;100.00
66664;BME280;59683;51.428;-1.994;2023-04-23T07:59:59;99177.63;;;13.30;100.00
66664;BME280;59683;51.428;-1.994;2023-04-23T08:02:25;99182.94;;;14.60;100.00
66664;BME280;59683;51.428;-1.994;2023-04-23T08:04:51;99187.59;;;15.53;100.00
66664;BME280;59683;51.428;-1.994;2023-04-23T08:07:17;99177.44;;;16.91;100.00
66664;BME280;59683;51.428;-1.994;2023-04-23T08:09:42;99174.38;;;16.59;100.00
66664;BME280;59683;51.428;-1.994;2023-04-23T08:12:08;99181.88;;;16.21;100.00
66664;BME280;59683;51.428;-1.994;2023-04-23T08:14:33;99192.97;;;15.39;100.00
66664;BME280;59683;51.428;-1.994;2023-04-23T08:16:59;99174.09;;;14.45;100.00
66664;BME280;59683;51.428;-1.994;2023-04-23T08:19:24;99174.13;;;14.07;100.00
66664;BME280;59683;51.428;-1.994;2023-04-23T08:21:50;99176.47;;;13.56;100.00
66664;BME280;59683;51.428;-1.994;2023-04-23T08:24:16;99177.38;;;13.09;100.00
66664;BME280;59683;51.428;-1.994;2023-04-23T08:26:42;99171.25;;;12.61;100.00
66664;BME280;59683;51.428;-1.994;2023-04-23T08:29:07;99168.75;;;13.07;100.00
66664;BME280;59683;51.428;-1.994;2023-04-23T08:31:32;99185.06;;;13.66;100.00
66664;BME280;59683;51.428;-1.994;2023-04-23T08:33:58;99182.38;;;14.12;100.00
66664;BME280;59683;51.428;-1.994;2023-04-23T08:36:24;99189.66;;;15.37;100.00
66664;BME280;59683;51.428;-1.994;2023-04-23T08:38:50;99186.00;;;15.74;100.00
66664;BME280;59683;51.428;-1.994;2023-04-23T08:41:17;99184.66;;;15.48;100.00
66664;BME280;59683;51.428;-1.994;2023-04-23T08:43:46;99192.22;;;15.81;100.00
66664;BME280;59683;51.428;-1.994;2023-04-23T08:46:17;99190.50;;;15.95;100.00
66664;BME280;59683;51.428;-1.994;2023-04-23T08:48:44;99186.56;;;15.18;100.00
66664;BME280;59683;51.428;-1.994;2023-04-23T08:51:12;99183.66;;;14.54;100.00
66664;BME280;59683;51.428;-1.994;2023-04-23T08:53:43;99183.59;;;14.24;100.00
66664;BME280;59683;51.428;-1.994;2023-04-23T08:56:12;99191.97;;;13.75;100.00
66664;BME280;59683;51.428;-1.994;2023-04-23T08:58:39;99182.38;;;13.43;100.00
66664;BME280;59683;51.428;-1.994;2023-04-23T09:01:06;99175.19;;;13.75;100.00
66664;BME280;59683;51.428;-1.994;2023-04-23T09:03:32;99187.22;;;15.57;100.00
66664;BME280;59683;51.428;-1.994;2023-04-23T09:05:57;99188.81;;;16.71;100.00
66664;BME280;59683;51.428;-1.994;2023-04-23T09:08:23;99180.34;;;17.51;100.00
66664;BME280;59683;51.428;-1.994;2023-04-23T09:10:50;99176.78;;;17.23;100.00
66664;BME280;59683;51.428;-1.994;2023-04-23T09:13:16;99175.94;;;18.31;100.00
66664;BME280;59683;51.428;-1.994;2023-04-23T09:15:42;99178.00;;;18.22;100.00
66664;BME280;59683;51.428;-1.994;2023-04-23T09:18:08;99174.03;;;18.58;100.00
66664;BME280;59683;51.428;-1.994;2023-04-23T09:20:34;99173.25;;;18.44;100.00
66664;BME280;59683;51.428;-1.994;2023-04-23T09:23:00;99177.53;;;18.65;98.53
66664;BME280;59683;51.428;-1.994;2023-04-23T09:25:30;99174.94;;;18.32;99.92
66664;BME280;59683;51.428;-1.994;2023-04-23T09:27:57;99178.00;;;17.21;100.00
66664;BME280;59683;51.428;-1.994;2023-04-23T09:30:22;99169.72;;;16.40;100.00
66664;BME280;59683;51.428;-1.994;2023-04-23T09:32:50;99169.91;;;15.67;100.00
66664;BME280;59683;51.428;-1.994;2023-04-23T09:35:17;99177.59;;;15.41;100.00
66664;BME280;59683;51.428;-1.994;2023-04-23T09:37:50;99177.88;;;14.95;100.00
66664;BME280;59683;51.428;-1.994;2023-04-23T09:40:22;99180.13;;;14.39;100.00
66664;BME280;59683;51.428;-1.994;2023-04-23T09:42:50;99182.53;;;13.96;100.00
66664;BME280;59683;51.428;-1.994;2023-04-23T09:45:18;99180.84;;;13.95;100.00
66664;BME280;59683;51.428;-1.994;2023-04-23T09:47:55;99177.31;;;13.79;100.00
66664;BME280;59683;51.428;-1.994;2023-04-23T09:50:34;99177.25;;;14.63;100.00
66664;BME280;59683;51.428;-1.994;2023-04-23T09:53:01;99173.63;;;15.15;100.00
66664;BME280;59683;51.428;-1.994;2023-04-23T09:55:31;99180.22;;;15.70;100.00
66664;BME280;59683;51.428;-1.994;2023-04-23T09:58:00;99174.72;;;16.78;100.00
66664;BME280;59683;51.428;-1.994;2023-04-23T10:00:31;99168.28;;;16.72;100.00
66664;BME280;59683;51.428;-1.994;2023-04-23T10:02:58;99162.66;;;16.95;100.00
66664;BME280;59683;51.428;-1.994;2023-04-23T10:05:23;99170.47;;;16.62;100.00
66664;BME280;59683;51.428;-1.994;2023-04-23T10:07:49;99166.81;;;16.35;100.00
66664;BME280;59683;51.428;-1.994;2023-04-23T10:10:15;99171.25;;;16.27;100.00
66664;BME280;59683;51.428;-1.994;2023-04-23T10:12:45;99170.13;;;15.87;100.00
66664;BME280;59683;51.428;-1.994;2023-04-23T10:15:11;99165.25;;;15.54;100.00
66664;BME280;59683;51.428;-1.994;2023-04-23T10:17:37;99164.97;;;15.28;100.00
66664;BME280;59683;51.428;-1.994;2023-04-23T10:20:04;99171.72;;;15.09;100.00
66664;BME280;59683;51.428;-1.994;2023-04-23T10:22:32;99161.75;;;15.18;100.00
66664;BME280;59683;51.428;-1.994;2023-04-23T10:24:59;99174.50;;;15.73;96.82
66664;BME280;59683;51.428;-1.994;2023-04-23T10:27:27;99168.59;;;15.99;95.67
66664;BME280;59683;51.428;-1.994;2023-04-23T10:29:53;99168.72;;;15.70;100.00
66664;BME280;59683;51.428;-1.994;2023-04-23T10:32:19;99164.19;;;14.98;100.00
66664;BME280;59683;51.428;-1.994;2023-04-23T10:34:46;99169.22;;;14.48;100.00
66664;BME280;59683;51.428;-1.994;2023-04-23T10:37:13;99165.03;;;14.16;100.00
66664;BME280;59683;51.428;-1.994;2023-04-23T10:39:42;99166.25;;;13.91;100.00
66664;BME280;59683;51.428;-1.994;2023-04-23T10:42:08;99163.09;;;14.10;100.00
66664;BME280;59683;51.428;-1.994;2023-04-23T10:44:36;99170.88;;;15.45;100.00
66664;BME280;59683;51.428;-1.994;2023-04-23T10:47:03;99162.16;;;17.26;79.83
66664;BME280;59683;51.428;-1.994;2023-04-23T10:49:30;99165.81;;;18.66;66.66
66664;BME280;59683;51.428;-1.994;2023-04-23T10:52:03;99165.75;;;20.07;58.35
66664;BME280;59683;51.428;-1.994;2023-04-23T10:54:30;99168.44;;;20.07;50.89
66664;BME280;59683;51.428;-1.994;2023-04-23T10:56:58;99167.91;;;20.24;54.31
66664;BME280;59683;51.428;-1.994;2023-04-23T10:59:26;99162.03;;;20.77;51.30
66664;BME280;59683;51.428;-1.994;2023-04-23T11:01:55;99158.19;;;19.21;59.10
66664;BME280;59683;51.428;-1.994;2023-04-23T11:06:51;99159.06;;;17.16;72.40
66664;BME280;59683;51.428;-1.994;2023-04-23T11:09:30;99152.41;;;16.29;80.44
66664;BME280;59683;51.428;-1.994;2023-04-23T11:11:56;99156.69;;;15.59;93.69
66664;BME280;59683;51.428;-1.994;2023-04-23T11:17:11;99154.34;;;14.39;100.00
66664;BME280;59683;51.428;-1.994;2023-04-23T11:19:37;99154.78;;;14.43;100.00
66664;BME280;59683;51.428;-1.994;2023-04-23T11:22:15;99163.88;;;16.01;100.00
66664;BME280;59683;51.428;-1.994;2023-04-23T11:24:44;99156.81;;;17.26;83.50
66664;BME280;59683;51.428;-1.994;2023-04-23T11:27:15;99153.50;;;17.92;70.88
66664;BME280;59683;51.428;-1.994;2023-04-23T11:29:42;99149.44;;;19.01;59.79
66664;BME280;59683;51.428;-1.994;2023-04-23T11:32:09;99160.28;;;19.19;54.59
66664;BME280;59683;51.428;-1.994;2023-04-23T11:34:38;99152.94;;;19.78;49.94
66664;BME280;59683;51.428;-1.994;2023-04-23T11:37:04;99154.34;;;20.80;50.84
66664;BME280;59683;51.428;-1.994;2023-04-23T11:39:33;99162.47;;;21.10;48.50
66664;BME280;59683;51.428;-1.994;2023-04-23T11:42:07;99157.41;;;20.16;47.64
66664;BME280;59683;51.428;-1.994;2023-04-23T11:44:37;99164.31;;;19.80;47.13
66664;BME280;59683;51.428;-1.994;2023-04-23T11:47:02;99165.25;;;19.92;49.74
66664;BME280;59683;51.428;-1.994;2023-04-23T11:49:28;99155.38;;;19.03;47.88
66664;BME280;59683;51.428;-1.994;2023-04-23T11:51:53;99159.66;;;17.86;53.30
66664;BME280;59683;51.428;-1.994;2023-04-23T11:54:24;99156.78;;;18.07;68.39
66664;BME280;59683;51.428;-1.994;2023-04-23T11:56:52;99158.44;;;19.20;57.16
66664;BME280;59683;51.428;-1.994;2023-04-23T11:59:17;99155.22;;;20.74;49.79
66664;BME280;59683;51.428;-1.994;2023-04-23T12:04:14;99161.84;;;20.53;46.47
66664;BME280;59683;51.428;-1.994;2023-04-23T12:06:41;99153.66;;;19.22;50.53
66664;BME280;59683;51.428;-1.994;2023-04-23T12:09:07;99155.50;;;18.50;52.56
66664;BME280;59683;51.428;-1.994;2023-04-23T12:11:34;99156.13;;;18.58;48.43
66664;BME280;59683;51.428;-1.994;2023-04-23T12:14:00;99158.59;;;18.60;46.94
66664;BME280;59683;51.428;-1.994;2023-04-23T12:19:01;99157.84;;;20.37;41.86
66664;BME280;59683;51.428;-1.994;2023-04-23T12:21:27;99152.00;;;19.65;43.91
66664;BME280;59683;51.428;-1.994;2023-04-23T12:23:56;99149.31;;;19.59;43.07
66664;BME280;59683;51.428;-1.994;2023-04-23T12:26:24;99146.03;;;18.54;46.20
66664;BME280;59683;51.428;-1.994;2023-04-23T12:28:51;99150.38;;;18.35;49.38
66664;BME280;59683;51.428;-1.994;2023-04-23T12:31:21;99156.44;;;18.95;43.91
66664;BME280;59683;51.428;-1.994;2023-04-23T12:33:55;99152.16;;;20.46;41.70
66664;BME280;59683;51.428;-1.994;2023-04-23T12:36:25;99153.34;;;20.56;42.85
66664;BME280;59683;51.428;-1.994;2023-04-23T12:38:51;99153.88;;;21.02;39.81
66664;BME280;59683;51.428;-1.994;2023-04-23T12:41:16;99151.34;;;20.45;44.19
66664;BME280;59683;51.428;-1.994;2023-04-23T12:43:42;99158.97;;;20.05;41.45
66664;BME280;59683;51.428;-1.994;2023-04-23T12:46:07;99155.38;;;19.03;44.63
66664;BME280;59683;51.428;-1.994;2023-04-23T12:48:33;99152.25;;;18.08;51.47
66664;BME280;59683;51.428;-1.994;2023-04-23T12:50:58;99151.06;;;16.81;61.16
66664;BME280;59683;51.428;-1.994;2023-04-23T12:53:24;99159.78;;;16.06;68.29
66664;BME280;59683;51.428;-1.994;2023-04-23T12:55:49;99141.06;;;15.35;82.87
66664;BME280;59683;51.428;-1.994;2023-04-23T12:58:15;99151.88;;;15.33;81.17
66664;BME280;59683;51.428;-1.994;2023-04-23T13:00:40;99157.13;;;15.05;82.45
66664;BME280;59683;51.428;-1.994;2023-04-23T13:03:05;99149.59;;;14.79;90.69
66664;BME280;59683;51.428;-1.994;2023-04-23T13:05:31;99155.53;;;14.96;80.93
66664;BME280;59683;51.428;-1.994;2023-04-23T13:07:57;99149.88;;;14.84;82.76
66664;BME280;59683;51.428;-1.994;2023-04-23T13:10:22;99155.53;;;14.96;81.37
66664;BME280;59683;51.428;-1.994;2023-04-23T13:12:47;99159.44;;;14.78;77.46
66664;BME280;59683;51.428;-1.994;2023-04-23T13:15:13;99156.53;;;15.10;74.08
66664;BME280;59683;51.428;-1.994;2023-04-23T13:17:38;99161.06;;;15.09;69.21
66664;BME280;59683;51.428;-1.994;2023-04-23T13:20:04;99166.78;;;15.42;81.13
66664;BME280;59683;51.428;-1.994;2023-04-23T13:22:30;99169.03;;;15.45;84.23
66664;BME280;59683;51.428;-1.994;2023-04-23T13:24:58;99162.63;;;15.40;78.94
66664;BME280;59683;51.428;-1.994;2023-04-23T13:27:25;99175.31;;;15.38;78.26
66664;BME280;59683;51.428;-1.994;2023-04-23T13:29:51;99172.22;;;15.19;92.89
66664;BME280;59683;51.428;-1.994;2023-04-23T13:32:16;99172.06;;;15.57;92.33
66664;BME280;59683;51.428;-1.994;2023-04-23T13:34:42;99181.63;;;15.51;97.59
66664;BME280;59683;51.428;-1.994;2023-04-23T13:37:07;99181.88;;;15.35;93.21
66664;BME280;59683;51.428;-1.994;2023-04-23T13:39:34;99185.34;;;15.36;96.68
66664;BME280;59683;51.428;-1.994;2023-04-23T13:42:00;99180.63;;;15.16;100.00
66664;BME280;59683;51.428;-1.994;2023-04-23T13:44:26;99185.63;;;14.75;99.25
66664;BME280;59683;51.428;-1.994;2023-04-23T13:46:51;99181.72;;;14.63;100.00
66664;BME280;59683;51.428;-1.994;2023-04-23T13:49:16;99188.84;;;14.47;100.00
66664;BME280;59683;51.428;-1.994;2023-04-23T13:51:42;99186.75;;;14.43;100.00
66664;BME280;59683;51.428;-1.994;2023-04-23T13:54:07;99184.97;;;14.35;100.00
66664;BME280;59683;51.428;-1.994;2023-04-23T13:56:33;99189.81;;;14.17;100.00
66664;BME280;59683;51.428;-1.994;2023-04-23T13:58:58;99189.19;;;13.92;100.00
66664;BME280;59683;51.428;-1.994;2023-04-23T14:01:27;99196.84;;;13.41;100.00
66664;BME280;59683;51.428;-1.994;2023-04-23T14:03:53;99195.59;;;13.28;100.00
66664;BME280;59683;51.428;-1.994;2023-04-23T14:06:19;99208.03;;;13.20;100.00
66664;BME280;59683;51.428;-1.994;2023-04-23T14:08:44;99201.91;;;12.80;100.00
66664;BME280;59683;51.428;-1.994;2023-04-23T14:11:10;99209.88;;;12.63;100.00
66664;BME280;59683;51.428;-1.994;2023-04-23T14:13:36;99210.41;;;12.51;100.00
66664;BME280;59683;51.428;-1.994;2023-04-23T14:16:01;99217.38;;;12.60;100.00
66664;BME280;59683;51.428;-1.994;2023-04-23T14:18:26;99215.06;;;12.40;100.00
66664;BME280;59683;51.428;-1.994;2023-04-23T14:20:52;99218.75;;;12.15;100.00
66664;BME280;59683;51.428;-1.994;2023-04-23T14:25:47;99210.09;;;12.29;100.00
66664;BME280;59683;51.428;-1.994;2023-04-23T14:28:43;99215.06;;;12.40;100.00
66664;BME280;59683;51.428;-1.994;2023-04-23T14:31:09;99212.91;;;12.44;100.00
66664;BME280;59683;51.428;-1.994;2023-04-23T14:33:34;99215.22;;;12.55;100.00
66664;BME280;59683;51.428;-1.994;2023-04-23T14:36:00;99206.84;;;12.91;100.00
66664;BME280;59683;51.428;-1.994;2023-04-23T14:38:25;99208.34;;;13.33;100.00
66664;BME280;59683;51.428;-1.994;2023-04-23T14:40:51;99216.63;;;13.38;100.00
66664;BME280;59683;51.428;-1.994;2023-04-23T14:43:16;99217.31;;;13.63;100.00
66664;BME280;59683;51.428;-1.994;2023-04-23T14:45:42;99223.28;;;13.34;100.00
66664;BME280;59683;51.428;-1.994;2023-04-23T14:48:08;99219.75;;;13.42;100.00
66664;BME280;59683;51.428;-1.994;2023-04-23T14:50:33;99219.97;;;13.32;100.00
66664;BME280;59683;51.428;-1.994;2023-04-23T14:52:58;99222.47;;;13.33;100.00
66664;BME280;59683;51.428;-1.994;2023-04-23T14:55:24;99230.63;;;13.32;100.00
66664;BME280;59683;51.428;-1.994;2023-04-23T14:57:50;99233.53;;;13.45;100.00
66664;BME280;59683;51.428;-1.994;2023-04-23T15:00:16;99229.75;;;13.40;100.00
66664;BME280;59683;51.428;-1.994;2023-04-23T15:02:42;99241.03;;;13.73;100.00
66664;BME280;59683;51.428;-1.994;2023-04-23T15:05:10;99232.06;;;13.43;100.00
66664;BME280;59683;51.428;-1.994;2023-04-23T15:07:36;99240.44;;;13.15;100.00
66664;BME280;59683;51.428;-1.994;2023-04-23T15:10:05;99246.22;;;13.27;100.00
66664;BME280;59683;51.428;-1.994;2023-04-23T15:15:05;99240.75;;;13.20;100.00
66664;BME280;59683;51.428;-1.994;2023-04-23T15:17:30;99250.53;;;13.36;100.00
66664;BME280;59683;51.428;-1.994;2023-04-23T15:19:56;99252.75;;;13.55;100.00
66664;BME280;59683;51.428;-1.994;2023-04-23T15:22:24;99249.53;;;13.91;100.00
66664;BME280;59683;51.428;-1.994;2023-04-23T15:24:50;99257.09;;;14.02;100.00
66664;BME280;59683;51.428;-1.994;2023-04-23T15:27:16;99259.75;;;14.02;100.00
66664;BME280;59683;51.428;-1.994;2023-04-23T15:29:41;99268.53;;;13.80;100.00
66664;BME280;59683;51.428;-1.994;2023-04-23T15:32:07;99265.13;;;13.71;100.00
66664;BME280;59683;51.428;-1.994;2023-04-23T15:34:34;99266.94;;;13.71;100.00
66664;BME280;59683;51.428;-1.994;2023-04-23T15:36:59;99270.22;;;13.50;100.00
66664;BME280;59683;51.428;-1.994;2023-04-23T15:39:25;99274.84;;;13.56;100.00
66664;BME280;59683;51.428;-1.994;2023-04-23T15:41:50;99270.44;;;13.40;100.00
66664;BME280;59683;51.428;-1.994;2023-04-23T15:44:16;99286.38;;;13.40;100.00
66664;BME280;59683;51.428;-1.994;2023-04-23T15:46:43;99285.66;;;13.46;100.00
66664;BME280;59683;51.428;-1.994;2023-04-23T15:49:08;99283.44;;;13.19;100.00
66664;BME280;59683;51.428;-1.994;2023-04-23T15:51:35;99278.19;;;12.94;100.00
66664;BME280;59683;51.428;-1.994;2023-04-23T15:54:00;99290.66;;;12.77;100.00
66664;BME280;59683;51.428;-1.994;2023-04-23T15:56:26;99294.50;;;12.50;100.00
66664;BME280;59683;51.428;-1.994;2023-04-23T16:04:34;99298.50;;;12.38;100.00
66664;BME280;59683;51.428;-1.994;2023-04-23T16:06:59;99298.47;;;12.22;100.00
66664;BME280;59683;51.428;-1.994;2023-04-23T16:09:24;99297.66;;;12.54;100.00
66664;BME280;59683;51.428;-1.994;2023-04-23T16:12:09;99292.00;;;12.73;100.00
66664;BME280;59683;51.428;-1.994;2023-04-23T16:14:38;99300.78;;;12.82;100.00
66664;BME280;59683;51.428;-1.994;2023-04-23T16:17:04;99306.72;;;13.00;100.00
66664;BME280;59683;51.428;-1.994;2023-04-23T16:19:29;99300.06;;;13.04;100.00
66664;BME280;59683;51.428;-1.994;2023-04-23T16:21:55;99301.03;;;13.20;100.00
66664;BME280;59683;51.428;-1.994;2023-04-23T16:24:20;99307.16;;;13.36;100.00
66664;BME280;59683;51.428;-1.994;2023-04-23T16:26:47;99299.22;;;13.12;100.00
66664;BME280;59683;51.428;-1.994;2023-04-23T16:29:12;99305.44;;;12.80;100.00
66664;BME280;59683;51.428;-1.994;2023-04-23T16:31:38;99316.06;;;12.55;100.00
66664;BME280;59683;51.428;-1.994;2023-04-23T16:34:04;99323.84;;;12.32;100.00
66664;BME280;59683;51.428;-1.994;2023-04-23T16:36:29;99322.66;;;11.94;100.00
66664;BME280;59683;51.428;-1.994;2023-04-23T16:38:57;99350.81;;;11.53;100.00
